Time;durP1;ratioP1;P1;durP2;ratioP2;P2;SDS_P1;SDS_P2;PMS_P1;PMS_P2;Temp;Humidity;BMP_temperature;BMP_pressure;BME280_temperature;BME280_humidity;BME280_pressure;Samples;Min_cycle;Max_cycle;Signal;HPM_P1;HPM_P2
2023/12/08 00:00:21;;;;;;;5.33;1.67;;;0.50;99.90;;;;;;5011460;28;20258;-59
2023/12/08 00:02:49;;;;;;;1.33;1.10;;;0.50;99.90;;;;;;5015167;28;20250;-58
2023/12/08 00:05:18;;;;;;;2.20;1.30;;;0.60;99.90;;;;;;5031187;28;20200;-59
2023/12/08 00:07:45;;;;;;;2.20;1.70;;;0.60;99.90;;;;;;5022082;28;20280;-59
2023/12/08 00:10:12;;;;;;;1.93;1.60;;;0.70;99.90;;;;;;5010143;28;20265;-58
2023/12/08 00:12:39;;;;;;;2.60;1.60;;;0.80;99.90;;;;;;5009285;28;20312;-59
2023/12/08 00:15:07;;;;;;;2.63;1.83;;;0.80;99.90;;;;;;5012178;28;20208;-58
2023/12/08 00:17:34;;;;;;;1.90;1.73;;;0.80;99.90;;;;;;5013096;28;20277;-59
2023/12/08 00:20:01;;;;;;;1.63;0.97;;;0.80;99.90;;;;;;5017323;28;20196;-59
2023/12/08 00:22:29;;;;;;;1.37;1.27;;;0.80;99.90;;;;;;5030973;28;20196;-59
2023/12/08 00:24:56;;;;;;;1.30;1.17;;;0.70;99.90;;;;;;5035321;28;20742;-59
2023/12/08 00:27:23;;;;;;;1.50;1.40;;;0.70;99.90;;;;;;5028845;28;20275;-59
2023/12/08 00:29:50;;;;;;;1.17;1.07;;;0.70;99.90;;;;;;5014970;28;20250;-58
2023/12/08 00:32:17;;;;;;;1.47;1.37;;;0.80;99.90;;;;;;5015099;28;20236;-59
2023/12/08 00:34:46;;;;;;;0.90;0.90;;;0.90;99.90;;;;;;5015478;28;20210;-58
2023/12/08 00:37:13;;;;;;;1.10;1.10;;;0.90;99.90;;;;;;5029871;28;20607;-58
2023/12/08 00:39:41;;;;;;;4.93;1.10;;;0.80;99.90;;;;;;5015495;28;20254;-58
2023/12/08 00:42:08;;;;;;;2.40;1.90;;;0.90;99.90;;;;;;5015212;28;20202;-59
2023/12/08 00:44:35;;;;;;;0.83;0.83;;;0.90;99.90;;;;;;5015428;28;20239;-58
2023/12/08 00:47:02;;;;;;;1.20;0.90;;;0.80;99.90;;;;;;5012512;28;20356;-58
2023/12/08 00:49:29;;;;;;;1.00;0.87;;;0.80;99.90;;;;;;5014925;28;20245;-58
2023/12/08 00:51:56;;;;;;;1.50;1.40;;;0.90;99.90;;;;;;5019793;28;20203;-58
2023/12/08 00:54:23;;;;;;;1.30;1.20;;;1.00;99.90;;;;;;5022490;28;20225;-58
2023/12/08 00:56:51;;;;;;;2.33;2.13;;;1.00;99.90;;;;;;5014478;28;20631;-58
2023/12/08 00:59:18;;;;;;;3.23;2.33;;;1.00;99.90;;;;;;5014104;28;20203;-59
2023/12/08 01:01:46;;;;;;;3.43;2.13;;;1.00;99.90;;;;;;5014954;28;20204;-59
2023/12/08 01:04:13;;;;;;;2.30;2.10;;;1.00;99.90;;;;;;5014985;28;20204;-60
2023/12/08 01:06:40;;;;;;;3.80;3.13;;;1.10;99.90;;;;;;5015157;28;20205;-58
2023/12/08 01:09:07;;;;;;;7.13;5.07;;;1.20;99.90;;;;;;5017378;28;20243;-58
2023/12/08 01:11:34;;;;;;;8.30;6.50;;;1.20;99.90;;;;;;5015013;28;20200;-59
2023/12/08 01:14:02;;;;;;;10.40;7.90;;;1.10;99.90;;;;;;5013642;28;20844;-59
2023/12/08 01:16:30;;;;;;;10.53;8.27;;;1.20;99.90;;;;;;5015664;28;20210;-59
2023/12/08 01:18:57;;;;;;;16.90;9.47;;;1.20;99.90;;;;;;5014481;28;20709;-59
2023/12/08 01:21:24;;;;;;;13.23;9.83;;;1.20;99.90;;;;;;5014886;28;20200;-59
2023/12/08 01:23:51;;;;;;;14.73;9.93;;;1.30;99.90;;;;;;5015438;28;20247;-58
2023/12/08 01:26:18;;;;;;;17.47;11.37;;;1.30;99.90;;;;;;5032190;28;20200;-58
2023/12/08 01:28:45;;;;;;;19.00;11.53;;;1.30;99.90;;;;;;5015244;28;20717;-59
2023/12/08 01:31:13;;;;;;;19.43;12.53;;;1.40;99.90;;;;;;5014424;28;20264;-59
2023/12/08 01:33:40;;;;;;;20.23;12.97;;;1.40;99.90;;;;;;5013703;28;20220;-58
2023/12/08 01:36:07;;;;;;;19.43;12.40;;;1.40;99.90;;;;;;5015541;28;20205;-59
2023/12/08 01:38:34;;;;;;;19.03;13.90;;;1.30;99.90;;;;;;5013335;28;20232;-59
2023/12/08 01:41:01;;;;;;;22.33;14.57;;;1.30;99.90;;;;;;5020203;28;20785;-58
2023/12/08 01:43:28;;;;;;;23.00;14.40;;;1.30;99.90;;;;;;5034078;28;20196;-58
2023/12/08 01:45:58;;;;;;;26.37;15.97;;;1.40;99.90;;;;;;5034372;28;20212;-58
2023/12/08 01:48:27;;;;;;;18.23;12.77;;;1.50;99.90;;;;;;5033690;28;20747;-59
2023/12/08 01:50:55;;;;;;;17.47;11.33;;;1.50;99.90;;;;;;5014510;28;20201;-59
2023/12/08 01:53:23;;;;;;;18.93;11.47;;;1.50;99.90;;;;;;5012600;28;20217;-58
2023/12/08 01:55:50;;;;;;;16.60;10.80;;;1.50;99.90;;;;;;5013798;28;20672;-58
2023/12/08 01:58:18;;;;;;;16.03;11.23;;;1.40;99.90;;;;;;5013856;28;21143;-59
2023/12/08 02:00:48;;;;;;;13.57;9.67;;;1.40;99.90;;;;;;5013701;28;20224;-59
2023/12/08 02:03:16;;;;;;;11.90;9.73;;;1.30;99.90;;;;;;5012404;28;20213;-58
2023/12/08 02:05:48;;;;;;;11.63;8.77;;;1.40;99.90;;;;;;5013988;28;20197;-59
2023/12/08 02:08:15;;;;;;;12.10;8.90;;;1.40;99.90;;;;;;5012513;28;20312;-58
2023/12/08 02:10:42;;;;;;;11.37;7.83;;;1.40;99.90;;;;;;5012424;28;20200;-58
2023/12/08 02:13:11;;;;;;;12.00;7.30;;;1.40;99.90;;;;;;5014020;28;20716;-58
2023/12/08 02:15:38;;;;;;;9.17;7.43;;;1.40;99.90;;;;;;5010337;28;20200;-59
2023/12/08 02:18:06;;;;;;;8.93;7.60;;;1.40;99.90;;;;;;5029637;28;20252;-58
2023/12/08 02:20:34;;;;;;;11.43;7.37;;;1.30;99.90;;;;;;5033590;28;20204;-59
2023/12/08 02:23:06;;;;;;;11.37;8.40;;;1.30;99.90;;;;;;5014956;28;20201;-58
2023/12/08 02:25:35;;;;;;;9.47;7.73;;;1.40;99.90;;;;;;5013694;28;20236;-58
2023/12/08 02:28:04;;;;;;;9.57;6.93;;;1.30;99.90;;;;;;5006005;28;20742;-59
2023/12/08 02:30:32;;;;;;;12.00;9.13;;;1.30;99.90;;;;;;5020823;28;20274;-59
2023/12/08 02:33:04;;;;;;;19.50;12.73;;;1.20;99.90;;;;;;5033068;28;20216;-58
2023/12/08 02:35:33;;;;;;;16.43;13.07;;;1.30;99.90;;;;;;5015800;28;20208;-58
2023/12/08 02:38:02;;;;;;;21.77;15.23;;;1.40;99.90;;;;;;5011958;28;20275;-58
2023/12/08 02:40:29;;;;;;;29.73;18.67;;;1.50;99.90;;;;;;5012204;28;20251;-58
2023/12/08 02:42:57;;;;;;;26.43;18.67;;;1.60;99.90;;;;;;5013359;28;20199;-58
2023/12/08 02:45:24;;;;;;;26.63;18.17;;;1.70;99.90;;;;;;5020181;28;20640;-58
2023/12/08 02:47:51;;;;;;;28.20;18.80;;;1.70;99.90;;;;;;5032646;28;20243;-58
2023/12/08 02:50:18;;;;;;;31.83;19.77;;;1.60;99.90;;;;;;5017348;28;20389;-58
2023/12/08 02:52:45;;;;;;;31.73;20.50;;;1.60;99.90;;;;;;5004342;28;20260;-59
2023/12/08 02:55:12;;;;;;;30.60;19.70;;;1.70;99.90;;;;;;5012570;28;20210;-59
2023/12/08 02:57:39;;;;;;;29.67;20.50;;;1.70;99.90;;;;;;5012539;28;20225;-59
2023/12/08 03:00:09;;;;;;;32.00;20.70;;;1.60;99.90;;;;;;5027346;28;20204;-58
2023/12/08 03:02:36;;;;;;;30.00;20.63;;;1.70;99.90;;;;;;5019601;28;20584;-58
2023/12/08 03:05:03;;;;;;;32.40;19.60;;;1.80;99.90;;;;;;5012696;28;20205;-59
2023/12/08 03:07:30;;;;;;;33.33;20.97;;;1.80;99.90;;;;;;5012101;28;20722;-59
2023/12/08 03:09:57;;;;;;;33.27;20.50;;;1.80;99.90;;;;;;5012791;28;20263;-59
2023/12/08 03:12:24;;;;;;;29.47;19.27;;;1.80;99.90;;;;;;5010236;28;20750;-58
2023/12/08 03:14:51;;;;;;;31.93;21.30;;;1.80;99.90;;;;;;5016208;28;20224;-58
2023/12/08 03:17:19;;;;;;;33.97;21.17;;;1.80;99.90;;;;;;5031866;28;20229;-58
2023/12/08 03:19:46;;;;;;;34.07;20.83;;;1.80;99.90;;;;;;5032250;28;20203;-59
2023/12/08 03:22:13;;;;;;;33.03;23.27;;;1.80;99.90;;;;;;5022308;28;20209;-58
2023/12/08 03:24:41;;;;;;;32.23;21.57;;;1.80;99.90;;;;;;5011929;28;20272;-58
2023/12/08 03:27:07;;;;;;;35.73;22.20;;;1.70;99.90;;;;;;5011877;28;20569;-59
2023/12/08 03:29:39;;;;;;;32.30;20.17;;;1.70;99.90;;;;;;5012307;28;20263;-59
2023/12/08 03:32:06;;;;;;;34.90;21.23;;;1.70;99.90;;;;;;5013367;28;20207;-58
2023/12/08 03:34:35;;;;;;;34.50;22.30;;;1.70;99.90;;;;;;5004081;28;20217;-58
2023/12/08 03:37:02;;;;;;;30.13;20.37;;;1.60;99.90;;;;;;5011614;28;20767;-59
2023/12/08 03:39:29;;;;;;;31.67;20.40;;;1.60;99.90;;;;;;5012142;28;20637;-58
2023/12/08 03:41:56;;;;;;;32.03;20.77;;;1.70;99.90;;;;;;5010400;28;20248;-59
2023/12/08 03:44:22;;;;;;;33.13;21.60;;;1.70;99.90;;;;;;5011762;28;20198;-58
2023/12/08 03:46:49;;;;;;;33.23;20.33;;;1.70;99.90;;;;;;5011516;28;20749;-59
2023/12/08 03:49:17;;;;;;;33.07;19.80;;;1.80;99.90;;;;;;5010174;28;20207;-59
2023/12/08 03:51:49;;;;;;;32.87;19.33;;;1.80;99.90;;;;;;5010558;28;20211;-59
2023/12/08 03:54:16;;;;;;;15.03;10.50;;;1.70;99.90;;;;;;5010428;28;20230;-58
2023/12/08 03:56:46;;;;;;;11.43;8.70;;;1.70;99.90;;;;;;5011366;28;20627;-58
2023/12/08 03:59:13;;;;;;;11.40;8.63;;;1.60;99.90;;;;;;5010919;28;20230;-58
2023/12/08 04:01:40;;;;;;;14.77;10.13;;;1.50;99.90;;;;;;5010025;28;20206;-58
2023/12/08 04:04:10;;;;;;;13.73;9.80;;;1.50;99.90;;;;;;5006527;28;20198;-58
2023/12/08 04:06:37;;;;;;;20.27;14.13;;;1.50;99.90;;;;;;5005313;28;20289;-59
2023/12/08 04:09:06;;;;;;;24.50;16.60;;;1.40;99.90;;;;;;5010916;28;20672;-59
2023/12/08 04:11:33;;;;;;;25.60;18.47;;;1.50;99.90;;;;;;5011446;28;20209;-59
2023/12/08 04:14:00;;;;;;;28.83;19.40;;;1.50;99.90;;;;;;5010105;28;20229;-59
2023/12/08 04:16:27;;;;;;;26.60;18.37;;;1.60;99.90;;;;;;4997590;28;20204;-58
2023/12/08 04:18:54;;;;;;;28.90;18.70;;;1.60;99.90;;;;;;5010357;28;20276;-59
2023/12/08 04:21:21;;;;;;;36.97;18.20;;;1.70;99.90;;;;;;5011451;28;20264;-58
2023/12/08 04:23:48;;;;;;;21.93;16.10;;;1.80;99.90;;;;;;5010492;28;20271;-59
2023/12/08 04:26:20;;;;;;;22.67;16.20;;;1.70;99.90;;;;;;5011304;28;20274;-58
2023/12/08 04:28:47;;;;;;;21.70;15.17;;;1.70;99.90;;;;;;5010121;28;20228;-59
2023/12/08 04:31:15;;;;;;;22.63;16.10;;;1.80;99.90;;;;;;5008935;28;20207;-58
2023/12/08 04:33:42;;;;;;;25.77;17.83;;;1.80;99.90;;;;;;5010160;28;20220;-58
2023/12/08 04:36:28;;;;;;;29.30;16.10;;;1.70;99.90;;;;;;5010966;28;20256;-58
2023/12/08 04:38:55;;;;;;;30.40;18.37;;;1.80;99.90;;;;;;5011097;28;20294;-59
2023/12/08 04:41:23;;;;;;;23.73;16.83;;;1.80;99.90;;;;;;5011029;28;20731;-58
2023/12/08 04:43:50;;;;;;;27.17;17.60;;;1.80;99.90;;;;;;5006430;28;20491;-58
2023/12/08 04:46:18;;;;;;;25.00;16.90;;;1.80;99.90;;;;;;5006235;28;20619;-58
2023/12/08 04:48:45;;;;;;;27.80;17.57;;;1.80;99.90;;;;;;5010209;28;20264;-59
2023/12/08 04:51:12;;;;;;;22.57;16.63;;;1.70;99.90;;;;;;5009843;28;20267;-59
2023/12/08 04:53:39;;;;;;;25.13;18.07;;;1.80;99.90;;;;;;5008151;28;20204;-58
2023/12/08 04:56:07;;;;;;;32.23;18.57;;;1.80;99.90;;;;;;5006434;28;20220;-59
2023/12/08 04:58:36;;;;;;;21.70;15.53;;;1.70;99.90;;;;;;5009988;28;20220;-59
2023/12/08 05:01:03;;;;;;;22.47;15.93;;;1.70;99.90;;;;;;5004386;28;20304;-58
2023/12/08 05:03:30;;;;;;;25.37;15.83;;;1.70;99.90;;;;;;5009350;28;20698;-59
2023/12/08 05:05:57;;;;;;;17.47;12.80;;;1.60;99.90;;;;;;5013066;28;20206;-59
2023/12/08 05:08:24;;;;;;;17.03;12.40;;;1.60;99.90;;;;;;5013359;28;20227;-58
2023/12/08 05:10:51;;;;;;;13.57;9.57;;;1.60;99.90;;;;;;5014217;28;20208;-59
2023/12/08 05:13:18;;;;;;;15.40;10.97;;;1.60;99.90;;;;;;5014417;28;20206;-58
2023/12/08 05:15:46;;;;;;;17.27;11.50;;;1.50;99.90;;;;;;5013433;28;20276;-58
2023/12/08 05:18:13;;;;;;;18.80;12.30;;;1.50;99.90;;;;;;5014429;28;20287;-59
2023/12/08 05:20:40;;;;;;;19.13;12.50;;;1.40;99.90;;;;;;5013744;28;20261;-58
2023/12/08 05:23:07;;;;;;;21.90;12.83;;;1.40;99.90;;;;;;5012955;28;20236;-58
2023/12/08 05:25:36;;;;;;;17.30;11.97;;;1.40;99.90;;;;;;5012594;28;20201;-58
2023/12/08 05:28:03;;;;;;;22.53;14.60;;;1.40;99.90;;;;;;5013641;28;20234;-58
2023/12/08 05:30:30;;;;;;;18.57;13.10;;;1.40;99.90;;;;;;5012498;28;20254;-59
2023/12/08 05:32:59;;;;;;;19.20;13.23;;;1.40;99.90;;;;;;5012372;28;20866;-59
2023/12/08 05:35:26;;;;;;;17.40;11.13;;;1.50;99.90;;;;;;5014462;28;20263;-59
2023/12/08 05:37:53;;;;;;;18.43;11.67;;;1.50;99.90;;;;;;5012343;28;20240;-61
2023/12/08 05:40:20;;;;;;;16.93;12.50;;;1.60;99.90;;;;;;5013993;28;20213;-60
2023/12/08 05:42:48;;;;;;;17.40;12.30;;;1.60;99.90;;;;;;5015287;28;20230;-61
2023/12/08 05:45:15;;;;;;;17.73;13.33;;;1.70;99.90;;;;;;5013749;28;20657;-61
2023/12/08 05:47:43;;;;;;;21.40;14.73;;;1.70;99.90;;;;;;5011960;28;20216;-61
2023/12/08 05:50:11;;;;;;;19.73;14.13;;;1.70;99.90;;;;;;5013505;28;20256;-61
2023/12/08 05:52:38;;;;;;;24.10;15.33;;;1.60;99.90;;;;;;5013421;28;20257;-61
2023/12/08 05:55:06;;;;;;;27.03;16.70;;;1.50;99.90;;;;;;5013090;28;20727;-61
2023/12/08 05:57:33;;;;;;;27.70;17.33;;;1.60;99.90;;;;;;5010712;28;20228;-61
2023/12/08 06:00:00;;;;;;;25.33;17.43;;;1.50;99.90;;;;;;5017051;28;20251;-62
2023/12/08 06:02:27;;;;;;;28.33;17.63;;;1.50;99.90;;;;;;5012210;28;20252;-61
2023/12/08 06:04:54;;;;;;;23.57;16.70;;;1.50;99.90;;;;;;5013492;28;20270;-61
2023/12/08 06:07:22;;;;;;;27.10;18.03;;;1.50;99.90;;;;;;5012829;28;20228;-60
2023/12/08 06:09:49;;;;;;;26.60;17.57;;;1.50;99.90;;;;;;5013539;28;20198;-61
2023/12/08 06:12:17;;;;;;;26.60;17.57;;;1.60;99.90;;;;;;5012519;28;20715;-61
2023/12/08 06:14:44;;;;;;;24.90;16.80;;;1.60;99.90;;;;;;5011369;28;20754;-60
2023/12/08 06:17:10;;;;;;;32.30;19.03;;;1.60;99.90;;;;;;5013118;28;20228;-61
2023/12/08 06:19:37;;;;;;;27.83;17.80;;;1.60;99.90;;;;;;5013137;28;20197;-60
2023/12/08 06:22:04;;;;;;;33.17;18.00;;;1.50;99.90;;;;;;5012971;28;20261;-61
2023/12/08 06:24:33;;;;;;;28.07;18.90;;;1.50;99.90;;;;;;5013311;28;20255;-60
2023/12/08 06:27:00;;;;;;;24.80;17.67;;;1.50;99.90;;;;;;5011774;28;20260;-61
2023/12/08 06:29:26;;;;;;;30.20;18.93;;;1.50;99.90;;;;;;5010072;28;20209;-61
2023/12/08 06:31:53;;;;;;;27.23;17.43;;;1.50;99.90;;;;;;5007699;28;20205;-64
2023/12/08 06:34:20;;;;;;;25.07;16.70;;;1.50;99.90;;;;;;5008070;28;20256;-63
2023/12/08 06:36:50;;;;;;;23.80;16.57;;;1.50;99.90;;;;;;5012472;28;20216;-60
2023/12/08 06:39:17;;;;;;;26.73;18.17;;;1.50;99.90;;;;;;5011974;28;20201;-61
2023/12/08 06:41:49;;;;;;;32.73;20.33;;;1.50;99.90;;;;;;5012614;28;20291;-61
2023/12/08 06:44:16;;;;;;;35.33;20.23;;;1.60;99.90;;;;;;5012640;28;20201;-61
2023/12/08 06:46:46;;;;;;;30.00;20.33;;;1.60;99.90;;;;;;5011723;28;20669;-60
2023/12/08 06:49:13;;;;;;;26.90;17.07;;;1.60;99.90;;;;;;5011168;28;20665;-61
2023/12/08 06:51:40;;;;;;;28.77;17.40;;;1.60;99.90;;;;;;5012477;28;20255;-61
2023/12/08 06:54:07;;;;;;;26.23;17.90;;;1.60;99.90;;;;;;5012242;28;20216;-61
2023/12/08 06:56:35;;;;;;;24.80;17.27;;;1.70;99.90;;;;;;5012590;28;20200;-61
2023/12/08 06:59:03;;;;;;;24.97;17.43;;;1.70;99.90;;;;;;5018328;28;20700;-59
2023/12/08 07:01:30;;;;;;;26.57;16.73;;;1.70;99.90;;;;;;5003749;28;20636;-59
2023/12/08 07:03:57;;;;;;;22.67;15.33;;;1.70;99.90;;;;;;5011341;28;20197;-59
2023/12/08 07:06:24;;;;;;;25.90;16.13;;;1.70;99.90;;;;;;5012111;28;20201;-59
2023/12/08 07:08:51;;;;;;;24.90;16.03;;;1.70;99.90;;;;;;5012237;28;20302;-58
2023/12/08 07:11:18;;;;;;;21.27;14.40;;;1.80;99.90;;;;;;5012521;28;20594;-59
2023/12/08 07:13:45;;;;;;;23.40;14.93;;;1.70;99.90;;;;;;5012349;28;20205;-59
2023/12/08 07:16:13;;;;;;;26.07;17.23;;;1.90;99.90;;;;;;5012048;28;20226;-59
2023/12/08 07:18:41;;;;;;;25.03;17.13;;;2.00;99.90;;;;;;5008709;28;20221;-59
2023/12/08 07:21:08;;;;;;;24.30;17.73;;;2.10;99.90;;;;;;5011855;28;20201;-58
2023/12/08 07:23:35;;;;;;;27.27;17.67;;;2.10;99.90;;;;;;5012053;28;20201;-59
2023/12/08 07:26:03;;;;;;;22.93;16.23;;;2.10;99.90;;;;;;5006565;28;20634;-59
2023/12/08 07:28:30;;;;;;;27.97;16.27;;;2.20;99.90;;;;;;5011366;28;20599;-59
2023/12/08 07:30:58;;;;;;;26.10;17.60;;;2.10;99.90;;;;;;5010826;28;20211;-59
2023/12/08 07:33:26;;;;;;;24.50;16.80;;;2.10;99.90;;;;;;5010546;28;20724;-59
2023/12/08 07:35:53;;;;;;;24.43;15.17;;;2.10;99.90;;;;;;5003784;28;20242;-59
2023/12/08 07:38:21;;;;;;;20.87;15.03;;;2.10;99.90;;;;;;5011618;28;20229;-59
2023/12/08 07:40:48;;;;;;;24.23;15.90;;;2.10;99.90;;;;;;5010313;28;20562;-59
2023/12/08 07:43:15;;;;;;;21.77;15.70;;;2.20;99.90;;;;;;5019069;28;20200;-59
2023/12/08 07:45:42;;;;;;;23.53;14.63;;;2.20;99.90;;;;;;5031737;28;20229;-59
2023/12/08 07:48:09;;;;;;;24.33;16.40;;;2.20;99.90;;;;;;5015059;28;20253;-59
2023/12/08 07:50:38;;;;;;;20.17;15.13;;;2.20;99.90;;;;;;5010621;28;20221;-59
2023/12/08 07:53:05;;;;;;;23.03;15.60;;;2.20;99.90;;;;;;5004475;28;20264;-59
2023/12/08 07:55:32;;;;;;;23.47;16.63;;;2.30;99.90;;;;;;5010974;28;20283;-59
2023/12/08 07:57:59;;;;;;;22.70;15.87;;;2.30;99.90;;;;;;5006222;28;20244;-59
2023/12/08 08:00:26;;;;;;;23.00;16.53;;;2.30;99.90;;;;;;5024469;28;20197;-59
2023/12/08 08:02:53;;;;;;;23.77;15.97;;;2.40;99.90;;;;;;5017978;28;20580;-59
2023/12/08 08:05:20;;;;;;;27.57;18.50;;;2.50;99.90;;;;;;5011645;28;20197;-59
2023/12/08 08:07:49;;;;;;;29.90;17.50;;;2.40;99.90;;;;;;5003503;28;20277;-59
2023/12/08 08:10:16;;;;;;;22.17;15.80;;;2.50;99.90;;;;;;5000406;28;20199;-59
2023/12/08 08:12:43;;;;;;;22.95;17.02;;;2.50;99.90;;;;;;5011062;28;20452;-59
2023/12/08 08:15:10;;;;;;;22.73;16.17;;;2.60;99.90;;;;;;5030509;28;20221;-59
2023/12/08 08:17:37;;;;;;;23.77;15.17;;;2.60;99.90;;;;;;5019938;28;20224;-59
2023/12/08 08:20:05;;;;;;;23.73;17.77;;;2.50;99.90;;;;;;5009567;28;20256;-59
2023/12/08 08:22:33;;;;;;;20.53;14.50;;;2.50;99.90;;;;;;5003551;28;20588;-59
2023/12/08 08:25:01;;;;;;;20.03;15.80;;;2.50;99.90;;;;;;5010487;28;20231;-59
2023/12/08 08:27:29;;;;;;;21.93;14.50;;;2.60;99.90;;;;;;5010015;28;20222;-58
2023/12/08 08:29:56;;;;;;;20.93;14.93;;;2.60;99.90;;;;;;5006376;28;20201;-59
2023/12/08 08:32:23;;;;;;;21.90;15.37;;;2.60;99.90;;;;;;5010064;28;20296;-59
2023/12/08 08:34:51;;;;;;;24.10;14.13;;;2.60;99.90;;;;;;5011269;28;20251;-59
2023/12/08 08:37:22;;;;;;;23.53;15.87;;;2.70;99.90;;;;;;5012727;28;20236;-58
2023/12/08 08:39:49;;;;;;;20.70;14.33;;;2.70;99.90;;;;;;5014265;28;20341;-59
2023/12/08 08:42:18;;;;;;;20.53;13.53;;;2.80;99.90;;;;;;5014698;28;20263;-58
2023/12/08 08:44:45;;;;;;;21.07;14.87;;;2.90;99.90;;;;;;5014219;28;20205;-59
2023/12/08 08:47:12;;;;;;;22.23;15.13;;;3.00;99.90;;;;;;5014346;28;20230;-59
2023/12/08 08:49:39;;;;;;;22.97;15.07;;;3.00;99.90;;;;;;5014985;28;20208;-58
2023/12/08 08:52:06;;;;;;;20.23;15.17;;;3.00;99.90;;;;;;5014783;28;20208;-58
2023/12/08 08:54:33;;;;;;;20.00;14.43;;;3.00;99.90;;;;;;5010557;28;20255;-58
2023/12/08 08:57:00;;;;;;;22.03;15.23;;;3.00;99.90;;;;;;5018595;28;20221;-58
2023/12/08 08:59:28;;;;;;;22.37;14.53;;;3.00;99.90;;;;;;5014641;28;20213;-59
2023/12/08 09:01:55;;;;;;;22.10;14.90;;;3.10;99.90;;;;;;5008472;28;20197;-58
2023/12/08 09:04:22;;;;;;;23.73;16.57;;;3.10;99.90;;;;;;5012978;28;20205;-58
2023/12/08 09:06:49;;;;;;;22.93;16.23;;;3.10;99.90;;;;;;5013856;28;20194;-58
2023/12/08 09:09:16;;;;;;;20.77;15.37;;;3.10;99.90;;;;;;5014400;28;20268;-58
2023/12/08 09:11:45;;;;;;;24.60;15.47;;;3.00;99.90;;;;;;5013100;28;20201;-58
2023/12/08 09:14:12;;;;;;;19.50;14.00;;;3.10;99.90;;;;;;5007134;28;20209;-58
2023/12/08 09:16:40;;;;;;;23.03;15.57;;;3.10;99.90;;;;;;5009349;28;20225;-64
2023/12/08 09:19:07;;;;;;;22.63;16.47;;;3.10;99.90;;;;;;5011754;28;20295;-58
2023/12/08 09:21:34;;;;;;;21.73;15.63;;;3.00;99.90;;;;;;5011707;28;20198;-58
2023/12/08 09:24:01;;;;;;;22.00;15.80;;;3.00;99.90;;;;;;5012646;28;20205;-58
2023/12/08 09:26:28;;;;;;;22.73;15.53;;;3.00;99.90;;;;;;5012267;28;20721;-58
2023/12/08 09:28:55;;;;;;;28.37;19.73;;;3.00;99.90;;;;;;5011506;28;20257;-58
2023/12/08 09:31:22;;;;;;;26.40;18.70;;;3.10;99.90;;;;;;5011909;28;20209;-59
2023/12/08 09:33:51;;;;;;;23.47;17.23;;;3.10;99.90;;;;;;5010396;28;20695;-59
2023/12/08 09:36:17;;;;;;;24.97;18.83;;;3.10;99.90;;;;;;5016724;28;20260;-58
2023/12/08 09:38:44;;;;;;;24.90;19.33;;;3.10;99.90;;;;;;5005879;28;20233;-58
2023/12/08 09:41:13;;;;;;;23.37;17.73;;;3.10;99.90;;;;;;5012891;28;20240;-58
2023/12/08 09:43:45;;;;;;;25.00;17.23;;;3.10;99.90;;;;;;5013069;28;20205;-58
2023/12/08 09:46:15;;;;;;;22.47;16.40;;;3.10;99.90;;;;;;5007282;28;20307;-58
2023/12/08 09:48:45;;;;;;;19.77;14.87;;;3.10;99.90;;;;;;5003809;28;20308;-58
2023/12/08 09:51:15;;;;;;;21.87;15.07;;;3.20;99.90;;;;;;5013348;28;20685;-58
2023/12/08 09:53:45;;;;;;;57.30;27.27;;;3.20;99.90;;;;;;5013398;28;20289;-58
2023/12/08 09:56:14;;;;;;;354.73;102.23;;;3.30;99.90;;;;;;5013476;28;20221;-58
2023/12/08 09:58:41;;;;;;;43.33;29.00;;;3.30;99.90;;;;;;5012285;28;20218;-58
2023/12/08 10:01:13;;;;;;;28.67;20.10;;;3.30;99.90;;;;;;5011524;28;20233;-58
2023/12/08 10:03:40;;;;;;;24.67;17.53;;;3.30;99.90;;;;;;5007304;28;20208;-58
2023/12/08 10:06:08;;;;;;;34.77;24.73;;;3.30;99.90;;;;;;5013776;28;20201;-58
2023/12/08 10:08:37;;;;;;;36.57;24.83;;;3.30;99.90;;;;;;5018861;28;20796;-58
2023/12/08 10:11:05;;;;;;;39.93;25.47;;;3.40;99.90;;;;;;5011093;28;20209;-58
2023/12/08 10:13:32;;;;;;;37.90;24.53;;;3.40;99.90;;;;;;5012443;28;20202;-58
2023/12/08 10:16:00;;;;;;;28.67;19.07;;;3.50;99.90;;;;;;5012095;28;20220;-58
2023/12/08 10:18:28;;;;;;;30.10;19.87;;;3.50;99.90;;;;;;5012066;28;20234;-65
2023/12/08 10:21:14;;;;;;;52.13;33.13;;;3.60;99.90;;;;;;5006710;28;20239;-64
2023/12/08 10:23:43;;;;;;;34.90;23.93;;;3.70;99.90;;;;;;5009642;28;20232;-58
2023/12/08 10:26:12;;;;;;;35.17;23.07;;;3.70;99.90;;;;;;5011191;28;20658;-58
2023/12/08 10:28:39;;;;;;;33.83;23.77;;;3.80;99.90;;;;;;5015056;28;20270;-58
2023/12/08 10:31:06;;;;;;;33.17;24.37;;;3.90;99.90;;;;;;5008596;28;20286;-58
2023/12/08 10:33:33;;;;;;;25.33;16.77;;;3.90;99.90;;;;;;4998406;28;20265;-58
2023/12/08 10:36:01;;;;;;;22.77;16.40;;;4.00;99.90;;;;;;5012255;28;20641;-58
2023/12/08 10:38:28;;;;;;;25.40;18.13;;;4.10;99.90;;;;;;5009019;28;20788;-58
2023/12/08 10:40:57;;;;;;;24.00;18.23;;;4.10;99.90;;;;;;5010029;28;20252;-58
2023/12/08 10:43:25;;;;;;;36.47;25.03;;;4.20;99.90;;;;;;5012307;28;20629;-58
2023/12/08 10:45:53;;;;;;;86.50;41.43;;;4.30;99.90;;;;;;5009814;28;20200;-58
2023/12/08 10:48:21;;;;;;;70.03;38.80;;;4.30;99.90;;;;;;5010409;28;20228;-58
2023/12/08 10:50:49;;;;;;;75.97;40.53;;;4.40;99.90;;;;;;5010241;28;20300;-58
2023/12/08 10:53:18;;;;;;;63.23;35.43;;;4.40;99.90;;;;;;5009421;28;20217;-58
2023/12/08 10:55:49;;;;;;;57.57;31.67;;;4.50;99.90;;;;;;5015510;28;20314;-58
2023/12/08 10:58:22;;;;;;;34.17;22.67;;;4.60;99.90;;;;;;5011138;28;20224;-59
2023/12/08 11:00:52;;;;;;;31.27;20.50;;;4.80;99.90;;;;;;5007560;28;20200;-58
2023/12/08 11:03:21;;;;;;;30.47;19.03;;;4.90;99.90;;;;;;5011623;28;20293;-58
2023/12/08 11:05:58;;;;;;;26.03;18.00;;;5.00;99.90;;;;;;5015242;28;20666;-58
2023/12/08 11:08:26;;;;;;;19.40;13.33;;;5.00;99.90;;;;;;5012143;28;20224;-58
2023/12/08 11:10:57;;;;;;;8.33;6.87;;;5.10;99.90;;;;;;5012083;28;20300;-57
2023/12/08 11:13:27;;;;;;;7.10;4.07;;;5.20;99.90;;;;;;5012017;28;20699;-58
2023/12/08 11:16:13;;;;;;;8.27;3.77;;;5.30;99.90;;;;;;5010444;28;20232;-58
2023/12/08 11:18:41;;;;;;;8.80;6.63;;;5.40;99.90;;;;;;5017681;28;20217;-58
2023/12/08 11:21:09;;;;;;;22.40;17.80;;;5.40;99.90;;;;;;5012260;28;20267;-58
2023/12/08 11:23:37;;;;;;;25.23;17.57;;;5.50;99.90;;;;;;5008806;28;20200;-58
2023/12/08 11:26:09;;;;;;;26.23;18.47;;;5.40;99.90;;;;;;5010332;28;20209;-58
2023/12/08 11:28:48;;;;;;;21.83;16.50;;;5.40;99.90;;;;;;5003212;28;20258;-57
2023/12/08 11:31:22;;;;;;;27.30;18.77;;;5.30;99.90;;;;;;5005507;28;20229;-58
2023/12/08 11:33:56;;;;;;;26.80;20.37;;;5.40;99.90;;;;;;5008679;28;20199;-58
2023/12/08 11:36:23;;;;;;;26.00;20.57;;;5.40;99.90;;;;;;5009823;28;20256;-59
2023/12/08 11:38:51;;;;;;;29.00;20.83;;;5.30;99.90;;;;;;5008616;28;20226;-58
2023/12/08 11:41:18;;;;;;;27.93;21.27;;;5.20;99.90;;;;;;5011157;28;20302;-58
2023/12/08 11:43:47;;;;;;;64.60;40.97;;;5.00;99.90;;;;;;5008257;28;20228;-57
2023/12/08 11:46:15;;;;;;;29.50;22.20;;;5.00;99.90;;;;;;5007585;28;20204;-58
2023/12/08 11:48:42;;;;;;;31.23;21.77;;;4.80;99.90;;;;;;5013374;28;20754;-58
2023/12/08 11:51:11;;;;;;;37.07;23.17;;;4.60;99.90;;;;;;5004810;28;20203;-57
2023/12/08 11:53:52;;;;;;;34.00;23.40;;;4.60;99.90;;;;;;5007543;28;20256;-57
2023/12/08 11:56:38;;;;;;;32.77;22.77;;;4.50;99.90;;;;;;5007597;28;20656;-58
2023/12/08 11:59:06;;;;;;;37.27;24.20;;;4.50;99.90;;;;;;5006707;28;20334;-58
2023/12/08 12:01:36;;;;;;;31.20;21.87;;;4.50;99.90;;;;;;5010888;28;20572;-58
2023/12/08 12:04:03;;;;;;;28.20;20.93;;;4.50;99.90;;;;;;5011389;28;20288;-58
2023/12/08 12:06:32;;;;;;;36.10;21.83;;;4.50;99.90;;;;;;5014539;28;20192;-58
2023/12/08 12:08:59;;;;;;;28.20;20.33;;;4.60;99.90;;;;;;5010839;28;20220;-58
2023/12/08 12:11:30;;;;;;;35.17;22.03;;;4.60;99.90;;;;;;5006528;28;20237;-58
2023/12/08 12:14:00;;;;;;;28.47;21.27;;;4.60;99.90;;;;;;5009279;28;20288;-58
2023/12/08 12:16:28;;;;;;;29.43;19.60;;;4.60;99.90;;;;;;5010609;28;20223;-58
2023/12/08 12:18:55;;;;;;;22.70;18.67;;;4.60;99.90;;;;;;5011564;28;20360;-58
2023/12/08 12:21:22;;;;;;;27.90;19.43;;;4.70;99.90;;;;;;5012498;28;20276;-58
2023/12/08 12:23:49;;;;;;;26.63;18.63;;;4.80;99.90;;;;;;5005047;28;20662;-58
2023/12/08 12:26:20;;;;;;;23.50;19.17;;;4.80;99.90;;;;;;5009768;28;20201;-58
2023/12/08 12:28:48;;;;;;;23.70;17.83;;;4.80;99.90;;;;;;5002714;28;20227;-58
2023/12/08 12:31:15;;;;;;;25.47;19.80;;;4.80;99.90;;;;;;5002942;28;20259;-58
2023/12/08 12:33:45;;;;;;;26.70;19.47;;;4.90;99.90;;;;;;5010899;28;20629;-58
2023/12/08 12:36:12;;;;;;;23.77;18.07;;;4.90;99.90;;;;;;5010440;28;20272;-58
2023/12/08 12:38:42;;;;;;;24.47;17.07;;;4.90;99.90;;;;;;5009297;28;20235;-58
2023/12/08 12:41:23;;;;;;;19.17;15.93;;;4.90;99.90;;;;;;5010762;28;20296;-58
2023/12/08 12:43:55;;;;;;;24.13;17.30;;;4.90;99.90;;;;;;5008030;28;20206;-58